Ana Sayfa
METAR-TAF:

METAR-TAF

Havaalanları :

Elâzığ Havalimanı

Elâzığ, Türkiye

Enlem: 38-36N, Boylam: 039-17E, yükseklik: 902 m

Güncel hava durumu gözlemi

Rapor saat 23:50 UTC de 1 saat ve 13 dakika önce yapıldı.
Rüzgar batı/güneybatıdan 4 kt
Sıcaklık 21°C
Nem 46%
Basınç 1012 hPa
Görüş mesafesi 10 km veya daha fazla
1500 m altında bulut yok ve kümülonimbus yok

METAR: LTCA 202350Z 24004KT CAVOK 21/09 Q1012 NOSIG

Saat: 04:03 (01:03 UTC)

Tahmin

Rapor saat 22:40 UTC de 2 saat ve 23 dakika önce yapıldı.
Ayın 21'si saat 00 UTC'den ayın 21'si saat 09 UTC'ye kadar geçerli Tahmin
Rüzgar değişken yönden 2 kt
Görüş mesafesi 10 km veya daha fazla
1500 m altında bulut yok ve kümülonimbus yok
Dönüşüyor
ayın 21'si saat 05 UTC'den ayın 21'si saat 07 UTC'ye kadar
3500 ft yükseklikte parçalı bulutlu

TAF: LTCA 202240Z 2100/2109 VRB02KT CAVOK BECMG 2105/2107 SCT035

4.000'den fazla havaalanı için hava durumu gözlemleri ve tahminleri (METAR ve TAF raporları).

Kullanılabilir istasyonlar harita üzerinde sarı ve kırmızı noktalarla gösterilir.

İstasyonun adını görmek için fareyi noktanın üzerinde gezdirin.

Sonrasında hava gözlem ve tahminlerini görmek için tıklayın.

Haritayı değiştirmek için: yaklaştırmak için siyah artı işaretli yeşil düğmeye ve uzaklaştırmak için de eksi işaretli düğmeye hızla tıklayın; bitişik haritalar için yeşil okları kullanın.


METAR-TAF: